sensor_id;sensor_type;location;lat;lon;timestamp;pressure;altitude;pressure_sealevel;temperature;humidity
55271;BME280;41132;47.162;9.470;2022-09-09T00:00:41;96340.13;;;16.68;100.00
55271;BME280;41132;47.162;9.470;2022-09-09T00:03:17;96342.56;;;16.69;100.00
55271;BME280;41132;47.162;9.470;2022-09-09T00:08:28;96347.28;;;16.74;100.00
55271;BME280;41132;47.162;9.470;2022-09-09T00:10:59;96336.81;;;16.59;100.00
55271;BME280;41132;47.162;9.470;2022-09-09T00:13:44;96324.34;;;16.46;100.00
55271;BME280;41132;47.162;9.470;2022-09-09T00:18:54;96326.66;;;16.63;100.00
55271;BME280;41132;47.162;9.470;2022-09-09T00:21:27;96321.31;;;16.56;100.00
55271;BME280;41132;47.162;9.470;2022-09-09T00:23:56;96314.78;;;16.52;100.00
55271;BME280;41132;47.162;9.470;2022-09-09T00:29:00;96304.16;;;16.45;100.00
55271;BME280;41132;47.162;9.470;2022-09-09T00:31:30;96304.81;;;16.54;100.00
55271;BME280;41132;47.162;9.470;2022-09-09T00:34:02;96297.25;;;16.51;100.00
55271;BME280;41132;47.162;9.470;2022-09-09T00:36:32;96304.59;;;16.49;100.00
55271;BME280;41132;47.162;9.470;2022-09-09T00:39:00;96304.63;;;16.56;100.00
55271;BME280;41132;47.162;9.470;2022-09-09T00:44:33;96296.69;;;16.62;100.00
55271;BME280;41132;47.162;9.470;2022-09-09T00:47:39;96300.53;;;16.60;100.00
55271;BME280;41132;47.162;9.470;2022-09-09T00:58:08;96294.06;;;16.76;100.00
55271;BME280;41132;47.162;9.470;2022-09-09T01:00:50;96296.56;;;16.84;100.00
55271;BME280;41132;47.162;9.470;2022-09-09T01:03:22;96296.06;;;16.60;100.00
55271;BME280;41132;47.162;9.470;2022-09-09T01:06:26;96298.69;;;16.54;100.00
55271;BME280;41132;47.162;9.470;2022-09-09T01:17:01;96287.66;;;16.50;100.00
55271;BME280;41132;47.162;9.470;2022-09-09T01:22:25;96296.63;;;16.42;100.00
55271;BME280;41132;47.162;9.470;2022-09-09T01:27:35;96297.81;;;16.40;100.00
55271;BME280;41132;47.162;9.470;2022-09-09T01:30:09;96295.81;;;16.42;100.00
55271;BME280;41132;47.162;9.470;2022-09-09T01:35:13;96295.03;;;16.55;100.00
55271;BME280;41132;47.162;9.470;2022-09-09T01:37:39;96285.91;;;16.22;100.00
55271;BME280;41132;47.162;9.470;2022-09-09T01:40:05;96284.00;;;16.10;100.00
55271;BME280;41132;47.162;9.470;2022-09-09T01:42:31;96283.22;;;16.16;100.00
55271;BME280;41132;47.162;9.470;2022-09-09T01:44:56;96277.09;;;16.08;100.00
55271;BME280;41132;47.162;9.470;2022-09-09T01:47:22;96285.81;;;16.02;100.00
55271;BME280;41132;47.162;9.470;2022-09-09T01:49:48;96283.78;;;16.04;100.00
55271;BME280;41132;47.162;9.470;2022-09-09T01:52:13;96280.19;;;16.19;100.00
55271;BME280;41132;47.162;9.470;2022-09-09T01:54:38;96276.34;;;16.28;100.00
55271;BME280;41132;47.162;9.470;2022-09-09T01:57:21;96286.97;;;16.35;100.00
55271;BME280;41132;47.162;9.470;2022-09-09T02:00:07;96291.91;;;16.38;100.00
55271;BME280;41132;47.162;9.470;2022-09-09T02:05:45;96289.63;;;16.35;100.00
55271;BME280;41132;47.162;9.470;2022-09-09T02:08:32;96288.41;;;16.37;100.00
55271;BME280;41132;47.162;9.470;2022-09-09T02:11:03;96289.09;;;16.53;100.00
55271;BME280;41132;47.162;9.470;2022-09-09T02:13:32;96293.91;;;16.29;100.00
55271;BME280;41132;47.162;9.470;2022-09-09T02:21:07;96285.63;;;16.45;100.00
55271;BME280;41132;47.162;9.470;2022-09-09T02:23:34;96287.41;;;16.38;100.00
55271;BME280;41132;47.162;9.470;2022-09-09T02:26:01;96289.03;;;16.39;100.00
55271;BME280;41132;47.162;9.470;2022-09-09T02:28:31;96285.41;;;16.40;100.00
55271;BME280;41132;47.162;9.470;2022-09-09T02:30:57;96283.13;;;16.37;100.00
55271;BME280;41132;47.162;9.470;2022-09-09T02:33:27;96284.63;;;16.46;100.00
55271;BME280;41132;47.162;9.470;2022-09-09T02:35:55;96292.16;;;16.49;100.00
55271;BME280;41132;47.162;9.470;2022-09-09T02:38:29;96294.81;;;16.49;100.00
55271;BME280;41132;47.162;9.470;2022-09-09T02:40:57;96289.66;;;16.41;100.00
55271;BME280;41132;47.162;9.470;2022-09-09T02:43:24;96289.03;;;16.39;100.00
55271;BME280;41132;47.162;9.470;2022-09-09T02:49:02;96295.16;;;16.33;100.00
55271;BME280;41132;47.162;9.470;2022-09-09T02:54:08;96300.16;;;16.21;100.00
55271;BME280;41132;47.162;9.470;2022-09-09T02:56:40;96298.72;;;16.19;100.00
55271;BME280;41132;47.162;9.470;2022-09-09T02:59:07;96302.56;;;16.16;100.00
55271;BME280;41132;47.162;9.470;2022-09-09T03:01:32;96290.69;;;16.05;100.00
55271;BME280;41132;47.162;9.470;2022-09-09T03:03:57;96291.91;;;16.03;100.00
55271;BME280;41132;47.162;9.470;2022-09-09T03:06:23;96296.97;;;15.98;100.00
55271;BME280;41132;47.162;9.470;2022-09-09T03:08:48;96294.34;;;15.98;100.00
55271;BME280;41132;47.162;9.470;2022-09-09T03:11:15;96292.41;;;15.85;100.00
55271;BME280;41132;47.162;9.470;2022-09-09T03:13:41;96292.34;;;15.72;100.00
55271;BME280;41132;47.162;9.470;2022-09-09T03:16:06;96289.94;;;15.77;100.00
55271;BME280;41132;47.162;9.470;2022-09-09T03:18:32;96287.78;;;15.94;100.00
55271;BME280;41132;47.162;9.470;2022-09-09T03:20:57;96278.63;;;15.96;100.00
55271;BME280;41132;47.162;9.470;2022-09-09T03:23:25;96293.13;;;16.00;100.00
55271;BME280;41132;47.162;9.470;2022-09-09T03:25:51;96298.81;;;15.97;100.00
55271;BME280;41132;47.162;9.470;2022-09-09T03:28:17;96293.88;;;15.88;100.00
55271;BME280;41132;47.162;9.470;2022-09-09T03:30:42;96301.19;;;15.85;100.00
55271;BME280;41132;47.162;9.470;2022-09-09T03:33:08;96293.47;;;15.91;100.00
55271;BME280;41132;47.162;9.470;2022-09-09T03:35:33;96304.28;;;15.96;100.00
55271;BME280;41132;47.162;9.470;2022-09-09T03:37:59;96298.09;;;15.82;100.00
55271;BME280;41132;47.162;9.470;2022-09-09T03:40:26;96300.78;;;15.89;100.00
55271;BME280;41132;47.162;9.470;2022-09-09T03:42:51;96297.06;;;15.76;100.00
55271;BME280;41132;47.162;9.470;2022-09-09T03:45:17;96296.22;;;15.76;100.00
55271;BME280;41132;47.162;9.470;2022-09-09T03:47:42;96290.84;;;15.69;100.00
55271;BME280;41132;47.162;9.470;2022-09-09T03:50:08;96292.22;;;15.86;100.00
55271;BME280;41132;47.162;9.470;2022-09-09T03:52:36;96295.50;;;15.89;100.00
55271;BME280;41132;47.162;9.470;2022-09-09T03:55:03;96293.19;;;15.79;100.00
55271;BME280;41132;47.162;9.470;2022-09-09T03:57:28;96294.06;;;15.86;100.00
55271;BME280;41132;47.162;9.470;2022-09-09T03:59:55;96306.09;;;15.89;100.00
55271;BME280;41132;47.162;9.470;2022-09-09T04:02:20;96306.84;;;15.82;100.00
55271;BME280;41132;47.162;9.470;2022-09-09T04:04:46;96293.56;;;15.76;100.00
55271;BME280;41132;47.162;9.470;2022-09-09T04:07:11;96293.34;;;15.71;100.00
55271;BME280;41132;47.162;9.470;2022-09-09T04:09:37;96296.84;;;15.78;100.00
55271;BME280;41132;47.162;9.470;2022-09-09T04:12:03;96293.19;;;15.79;100.00
55271;BME280;41132;47.162;9.470;2022-09-09T04:14:29;96284.06;;;15.81;100.00
55271;BME280;41132;47.162;9.470;2022-09-09T04:16:55;96286.53;;;15.83;100.00
55271;BME280;41132;47.162;9.470;2022-09-09T04:19:22;96280.75;;;15.73;100.00
55271;BME280;41132;47.162;9.470;2022-09-09T04:21:47;96280.03;;;15.64;100.00
55271;BME280;41132;47.162;9.470;2022-09-09T04:24:17;96287.09;;;15.78;100.00
55271;BME280;41132;47.162;9.470;2022-09-09T04:26:42;96292.06;;;15.66;100.00
55271;BME280;41132;47.162;9.470;2022-09-09T04:29:08;96285.41;;;15.71;100.00
55271;BME280;41132;47.162;9.470;2022-09-09T04:31:34;96297.28;;;15.81;100.00
55271;BME280;41132;47.162;9.470;2022-09-09T04:33:59;96289.41;;;15.88;100.00
55271;BME280;41132;47.162;9.470;2022-09-09T04:36:30;96288.13;;;15.84;100.00
55271;BME280;41132;47.162;9.470;2022-09-09T04:38:56;96295.03;;;15.78;100.00
55271;BME280;41132;47.162;9.470;2022-09-09T04:41:22;96288.44;;;15.46;100.00
55271;BME280;41132;47.162;9.470;2022-09-09T04:43:47;96299.28;;;15.51;100.00
55271;BME280;41132;47.162;9.470;2022-09-09T04:46:13;96291.94;;;15.47;100.00
55271;BME280;41132;47.162;9.470;2022-09-09T04:48:38;96298.78;;;15.69;100.00
55271;BME280;41132;47.162;9.470;2022-09-09T04:51:06;96299.94;;;15.60;100.00
55271;BME280;41132;47.162;9.470;2022-09-09T04:53:32;96303.66;;;15.65;100.00
55271;BME280;41132;47.162;9.470;2022-09-09T04:56:04;96296.53;;;15.66;100.00
55271;BME280;41132;47.162;9.470;2022-09-09T04:58:30;96289.97;;;15.62;100.00
55271;BME280;41132;47.162;9.470;2022-09-09T05:01:09;96292.72;;;15.47;100.00
55271;BME280;41132;47.162;9.470;2022-09-09T05:03:35;96309.13;;;15.36;100.00
55271;BME280;41132;47.162;9.470;2022-09-09T05:06:12;96317.78;;;15.51;100.00
55271;BME280;41132;47.162;9.470;2022-09-09T05:08:38;96307.69;;;15.61;100.00
55271;BME280;41132;47.162;9.470;2022-09-09T05:11:31;96307.06;;;15.59;100.00
55271;BME280;41132;47.162;9.470;2022-09-09T05:13:57;96317.41;;;15.33;100.00
55271;BME280;41132;47.162;9.470;2022-09-09T05:16:23;96320.69;;;15.56;100.00
55271;BME280;41132;47.162;9.470;2022-09-09T05:18:49;96321.53;;;15.63;100.00
55271;BME280;41132;47.162;9.470;2022-09-09T05:21:17;96319.94;;;15.69;100.00
55271;BME280;41132;47.162;9.470;2022-09-09T05:23:44;96325.38;;;15.82;100.00
55271;BME280;41132;47.162;9.470;2022-09-09T05:26:13;96340.88;;;15.85;100.00
55271;BME280;41132;47.162;9.470;2022-09-09T05:28:38;96345.16;;;15.86;100.00
55271;BME280;41132;47.162;9.470;2022-09-09T05:31:06;96345.19;;;15.93;100.00
55271;BME280;41132;47.162;9.470;2022-09-09T05:33:36;96344.56;;;15.91;100.00
55271;BME280;41132;47.162;9.470;2022-09-09T05:36:07;96349.06;;;15.91;100.00
55271;BME280;41132;47.162;9.470;2022-09-09T05:38:34;96351.34;;;15.72;100.00
55271;BME280;41132;47.162;9.470;2022-09-09T05:41:01;96352.25;;;15.58;100.00
55271;BME280;41132;47.162;9.470;2022-09-09T05:43:28;96356.84;;;15.49;100.00
55271;BME280;41132;47.162;9.470;2022-09-09T05:48:34;96353.91;;;15.87;100.00
55271;BME280;41132;47.162;9.470;2022-09-09T05:51:00;96365.47;;;15.79;100.00
55271;BME280;41132;47.162;9.470;2022-09-09T05:53:26;96371.94;;;15.77;100.00
55271;BME280;41132;47.162;9.470;2022-09-09T05:56:02;96368.72;;;15.81;100.00
55271;BME280;41132;47.162;9.470;2022-09-09T05:58:30;96355.16;;;15.91;100.00
55271;BME280;41132;47.162;9.470;2022-09-09T06:03:35;96348.81;;;15.85;100.00
55271;BME280;41132;47.162;9.470;2022-09-09T06:06:03;96356.16;;;15.69;100.00
55271;BME280;41132;47.162;9.470;2022-09-09T06:08:31;96369.41;;;15.90;100.00
55271;BME280;41132;47.162;9.470;2022-09-09T06:11:08;96356.66;;;16.00;100.00
55271;BME280;41132;47.162;9.470;2022-09-09T06:13:34;96368.09;;;16.07;100.00
55271;BME280;41132;47.162;9.470;2022-09-09T06:16:02;96364.00;;;16.05;100.00
55271;BME280;41132;47.162;9.470;2022-09-09T06:18:27;96358.09;;;16.03;100.00
55271;BME280;41132;47.162;9.470;2022-09-09T06:20:54;96369.94;;;16.07;100.00
55271;BME280;41132;47.162;9.470;2022-09-09T06:23:20;96352.03;;;16.09;100.00
55271;BME280;41132;47.162;9.470;2022-09-09T06:25:45;96356.38;;;16.23;100.00
55271;BME280;41132;47.162;9.470;2022-09-09T06:28:11;96358.25;;;16.29;100.00
55271;BME280;41132;47.162;9.470;2022-09-09T06:30:36;96359.88;;;16.24;100.00
55271;BME280;41132;47.162;9.470;2022-09-09T06:33:02;96362.97;;;16.34;100.00
55271;BME280;41132;47.162;9.470;2022-09-09T06:35:27;96357.41;;;16.22;100.00
55271;BME280;41132;47.162;9.470;2022-09-09T06:37:53;96347.47;;;16.31;100.00
55271;BME280;41132;47.162;9.470;2022-09-09T06:40:19;96350.84;;;16.46;100.00
55271;BME280;41132;47.162;9.470;2022-09-09T06:42:44;96345.34;;;16.55;100.00
55271;BME280;41132;47.162;9.470;2022-09-09T06:45:10;96348.22;;;16.60;100.00
55271;BME280;41132;47.162;9.470;2022-09-09T06:47:36;96353.44;;;16.40;100.00
55271;BME280;41132;47.162;9.470;2022-09-09T06:50:01;96351.28;;;16.57;100.00
55271;BME280;41132;47.162;9.470;2022-09-09T06:52:26;96346.38;;;16.54;100.00
55271;BME280;41132;47.162;9.470;2022-09-09T06:54:52;96360.59;;;16.46;100.00
55271;BME280;41132;47.162;9.470;2022-09-09T06:57:18;96353.81;;;16.37;100.00
55271;BME280;41132;47.162;9.470;2022-09-09T06:59:44;96364.00;;;16.33;100.00
55271;BME280;41132;47.162;9.470;2022-09-09T07:02:09;96360.91;;;16.29;100.00
55271;BME280;41132;47.162;9.470;2022-09-09T07:04:35;96363.75;;;16.28;100.00
55271;BME280;41132;47.162;9.470;2022-09-09T07:07:02;96368.16;;;16.49;100.00
55271;BME280;41132;47.162;9.470;2022-09-09T07:09:27;96360.22;;;16.49;100.00
55271;BME280;41132;47.162;9.470;2022-09-09T07:11:54;96373.94;;;16.66;100.00
55271;BME280;41132;47.162;9.470;2022-09-09T07:14:20;96366.47;;;16.76;100.00
55271;BME280;41132;47.162;9.470;2022-09-09T07:16:47;96366.09;;;16.86;100.00
55271;BME280;41132;47.162;9.470;2022-09-09T07:19:13;96366.97;;;17.00;100.00
55271;BME280;41132;47.162;9.470;2022-09-09T07:21:39;96363.91;;;17.03;100.00
55271;BME280;41132;47.162;9.470;2022-09-09T07:24:05;96357.19;;;17.07;100.00
55271;BME280;41132;47.162;9.470;2022-09-09T07:26:33;96365.16;;;17.14;100.00
55271;BME280;41132;47.162;9.470;2022-09-09T07:28:59;96355.56;;;17.06;100.00
55271;BME280;41132;47.162;9.470;2022-09-09T07:31:26;96366.00;;;17.21;100.00
55271;BME280;41132;47.162;9.470;2022-09-09T07:33:52;96365.81;;;17.22;100.00
55271;BME280;41132;47.162;9.470;2022-09-09T07:36:29;96350.28;;;17.26;100.00
55271;BME280;41132;47.162;9.470;2022-09-09T07:38:58;96356.44;;;17.20;100.00
55271;BME280;41132;47.162;9.470;2022-09-09T07:41:31;96373.09;;;17.00;100.00
55271;BME280;41132;47.162;9.470;2022-09-09T07:43:59;96371.88;;;17.09;100.00
55271;BME280;41132;47.162;9.470;2022-09-09T07:46:28;96375.94;;;16.99;100.00
55271;BME280;41132;47.162;9.470;2022-09-09T07:48:55;96377.16;;;17.03;100.00
55271;BME280;41132;47.162;9.470;2022-09-09T07:51:24;96379.75;;;16.89;100.00
55271;BME280;41132;47.162;9.470;2022-09-09T07:53:56;96385.91;;;16.90;100.00
55271;BME280;41132;47.162;9.470;2022-09-09T07:56:24;96391.84;;;16.92;100.00
55271;BME280;41132;47.162;9.470;2022-09-09T07:58:52;96383.91;;;16.99;100.00
55271;BME280;41132;47.162;9.470;2022-09-09T08:01:26;96384.06;;;16.90;100.00
55271;BME280;41132;47.162;9.470;2022-09-09T08:03:57;96385.94;;;16.97;100.00
55271;BME280;41132;47.162;9.470;2022-09-09T08:06:24;96382.19;;;16.84;100.00
55271;BME280;41132;47.162;9.470;2022-09-09T08:08:51;96398.09;;;16.84;100.00
55271;BME280;41132;47.162;9.470;2022-09-09T08:11:16;96396.34;;;16.63;100.00
55271;BME280;41132;47.162;9.470;2022-09-09T08:13:43;96396.13;;;16.58;100.00
55271;BME280;41132;47.162;9.470;2022-09-09T08:16:15;96391.19;;;16.55;100.00
55271;BME280;41132;47.162;9.470;2022-09-09T08:18:41;96397.38;;;16.62;100.00
55271;BME280;41132;47.162;9.470;2022-09-09T08:21:13;96405.66;;;16.81;100.00
55271;BME280;41132;47.162;9.470;2022-09-09T08:23:42;96409.47;;;16.78;100.00
55271;BME280;41132;47.162;9.470;2022-09-09T08:26:25;96407.63;;;16.79;100.00
55271;BME280;41132;47.162;9.470;2022-09-09T08:28:53;96398.59;;;17.01;100.00
55271;BME280;41132;47.162;9.470;2022-09-09T08:31:28;96411.50;;;16.76;100.00
55271;BME280;41132;47.162;9.470;2022-09-09T08:33:55;96408.53;;;16.58;100.00
55271;BME280;41132;47.162;9.470;2022-09-09T08:36:23;96415.47;;;16.24;100.00
55271;BME280;41132;47.162;9.470;2022-09-09T08:38:50;96416.47;;;15.95;100.00
55271;BME280;41132;47.162;9.470;2022-09-09T08:43:46;96410.44;;;16.07;100.00
55271;BME280;41132;47.162;9.470;2022-09-09T08:48:54;96427.06;;;16.23;100.00
55271;BME280;41132;47.162;9.470;2022-09-09T08:51:25;96425.44;;;16.22;100.00
55271;BME280;41132;47.162;9.470;2022-09-09T08:53:52;96428.59;;;16.39;100.00
55271;BME280;41132;47.162;9.470;2022-09-09T08:56:23;96448.13;;;16.31;100.00
55271;BME280;41132;47.162;9.470;2022-09-09T08:58:51;96449.75;;;16.32;100.00
55271;BME280;41132;47.162;9.470;2022-09-09T09:01:44;96439.38;;;16.37;100.00
55271;BME280;41132;47.162;9.470;2022-09-09T09:07:28;96441.03;;;16.38;100.00
55271;BME280;41132;47.162;9.470;2022-09-09T09:10:08;96439.63;;;16.42;100.00
55271;BME280;41132;47.162;9.470;2022-09-09T09:12:42;96446.09;;;16.33;100.00
55271;BME280;41132;47.162;9.470;2022-09-09T09:15:18;96444.88;;;16.07;100.00
55271;BME280;41132;47.162;9.470;2022-09-09T09:17:44;96457.84;;;16.02;100.00
55271;BME280;41132;47.162;9.470;2022-09-09T09:20:20;96448.19;;;16.16;100.00
55271;BME280;41132;47.162;9.470;2022-09-09T09:22:52;96458.41;;;16.19;100.00
55271;BME280;41132;47.162;9.470;2022-09-09T09:25:22;96460.03;;;16.20;100.00
55271;BME280;41132;47.162;9.470;2022-09-09T09:27:59;96445.88;;;16.06;100.00
55271;BME280;41132;47.162;9.470;2022-09-09T09:30:36;96449.06;;;16.23;100.00
55271;BME280;41132;47.162;9.470;2022-09-09T09:33:24;96459.13;;;16.35;100.00
55271;BME280;41132;47.162;9.470;2022-09-09T09:35:52;96452.56;;;16.59;100.00
55271;BME280;41132;47.162;9.470;2022-09-09T09:38:19;96453.97;;;16.55;100.00
55271;BME280;41132;47.162;9.470;2022-09-09T09:40:56;96448.84;;;16.53;100.00
55271;BME280;41132;47.162;9.470;2022-09-09T09:43:31;96461.34;;;16.87;100.00
55271;BME280;41132;47.162;9.470;2022-09-09T09:45:57;96452.88;;;16.77;100.00
55271;BME280;41132;47.162;9.470;2022-09-09T09:48:24;96456.47;;;16.63;100.00
55271;BME280;41132;47.162;9.470;2022-09-09T09:51:08;96458.72;;;16.66;100.00
55271;BME280;41132;47.162;9.470;2022-09-09T09:53:38;96458.28;;;16.56;100.00
55271;BME280;41132;47.162;9.470;2022-09-09T09:56:06;96463.22;;;16.65;100.00
55271;BME280;41132;47.162;9.470;2022-09-09T10:01:32;96466.78;;;16.79;100.00
55271;BME280;41132;47.162;9.470;2022-09-09T10:04:00;96457.38;;;16.48;100.00
55271;BME280;41132;47.162;9.470;2022-09-09T10:06:37;96460.28;;;16.54;100.00
55271;BME280;41132;47.162;9.470;2022-09-09T10:09:29;96464.38;;;16.56;100.00
55271;BME280;41132;47.162;9.470;2022-09-09T10:29:22;96448.94;;;16.66;100.00
55271;BME280;41132;47.162;9.470;2022-09-09T10:34:43;96458.69;;;17.36;100.00
55271;BME280;41132;47.162;9.470;2022-09-09T10:40:23;96452.75;;;16.85;100.00
55271;BME280;41132;47.162;9.470;2022-09-09T10:42:53;96454.06;;;17.03;100.00
55271;BME280;41132;47.162;9.470;2022-09-09T10:45:32;96444.91;;;17.12;100.00
55271;BME280;41132;47.162;9.470;2022-09-09T10:50:58;96440.38;;;17.61;100.00
55271;BME280;41132;47.162;9.470;2022-09-09T10:53:37;96437.66;;;17.41;100.00
55271;BME280;41132;47.162;9.470;2022-09-09T10:56:11;96431.09;;;17.23;100.00
55271;BME280;41132;47.162;9.470;2022-09-09T10:58:44;96425.66;;;17.45;100.00
55271;BME280;41132;47.162;9.470;2022-09-09T11:01:25;96426.91;;;17.56;100.00
55271;BME280;41132;47.162;9.470;2022-09-09T11:03:56;96424.22;;;17.49;100.00
55271;BME280;41132;47.162;9.470;2022-09-09T11:06:29;96418.66;;;17.37;100.00
55271;BME280;41132;47.162;9.470;2022-09-09T11:08:57;96419.72;;;17.43;100.00
55271;BME280;41132;47.162;9.470;2022-09-09T11:11:43;96414.75;;;17.20;100.00
55271;BME280;41132;47.162;9.470;2022-09-09T11:14:19;96417.59;;;17.18;100.00
55271;BME280;41132;47.162;9.470;2022-09-09T11:17:02;96406.47;;;17.43;100.00
55271;BME280;41132;47.162;9.470;2022-09-09T11:19:44;96403.19;;;17.47;100.00
55271;BME280;41132;47.162;9.470;2022-09-09T11:22:31;96402.78;;;17.44;100.00
55271;BME280;41132;47.162;9.470;2022-09-09T11:25:17;96391.38;;;17.50;100.00
55271;BME280;41132;47.162;9.470;2022-09-09T11:28:04;96390.94;;;17.53;100.00
55271;BME280;41132;47.162;9.470;2022-09-09T11:36:48;96378.28;;;17.48;100.00
55271;BME280;41132;47.162;9.470;2022-09-09T11:42:16;96374.47;;;17.84;100.00
55271;BME280;41132;47.162;9.470;2022-09-09T11:44:43;96368.97;;;17.86;100.00
55271;BME280;41132;47.162;9.470;2022-09-09T11:47:26;96372.25;;;17.81;100.00
55271;BME280;41132;47.162;9.470;2022-09-09T11:50:35;96377.69;;;17.66;100.00
55271;BME280;41132;47.162;9.470;2022-09-09T11:55:39;96369.13;;;17.58;100.00
55271;BME280;41132;47.162;9.470;2022-09-09T12:00:41;96380.41;;;18.06;100.00
55271;BME280;41132;47.162;9.470;2022-09-09T12:06:31;96374.06;;;18.07;100.00
55271;BME280;41132;47.162;9.470;2022-09-09T12:09:16;96385.91;;;18.11;100.00
55271;BME280;41132;47.162;9.470;2022-09-09T12:11:43;96386.94;;;18.04;100.00
55271;BME280;41132;47.162;9.470;2022-09-09T12:14:22;96397.38;;;17.99;100.00
55271;BME280;41132;47.162;9.470;2022-09-09T12:16:48;96382.63;;;17.89;100.00
55271;BME280;41132;47.162;9.470;2022-09-09T12:19:16;96393.25;;;17.96;100.00
55271;BME280;41132;47.162;9.470;2022-09-09T12:21:58;96389.19;;;18.00;100.00
55271;BME280;41132;47.162;9.470;2022-09-09T12:24:49;96387.38;;;17.87;100.00
55271;BME280;41132;47.162;9.470;2022-09-09T12:27:34;96386.94;;;17.84;100.00
55271;BME280;41132;47.162;9.470;2022-09-09T12:30:09;96381.63;;;17.84;100.00
55271;BME280;41132;47.162;9.470;2022-09-09T12:32:35;96384.47;;;17.82;100.00
55271;BME280;41132;47.162;9.470;2022-09-09T12:35:07;96375.72;;;17.88;100.00
55271;BME280;41132;47.162;9.470;2022-09-09T12:37:51;96375.91;;;17.87;100.00
55271;BME280;41132;47.162;9.470;2022-09-09T12:40:27;96365.25;;;17.80;100.00
55271;BME280;41132;47.162;9.470;2022-09-09T12:42:52;96371.44;;;17.87;100.00
55271;BME280;41132;47.162;9.470;2022-09-09T12:45:25;96369.16;;;17.91;100.00
55271;BME280;41132;47.162;9.470;2022-09-09T12:47:57;96361.59;;;17.74;100.00
55271;BME280;41132;47.162;9.470;2022-09-09T12:50:36;96354.03;;;17.71;100.00
55271;BME280;41132;47.162;9.470;2022-09-09T12:53:30;96355.03;;;17.70;100.00
55271;BME280;41132;47.162;9.470;2022-09-09T12:55:59;96355.03;;;17.57;100.00
55271;BME280;41132;47.162;9.470;2022-09-09T12:58:25;96364.06;;;17.76;100.00
55271;BME280;41132;47.162;9.470;2022-09-09T13:00:54;96354.84;;;17.79;100.00
55271;BME280;41132;47.162;9.470;2022-09-09T13:03:24;96363.81;;;17.71;100.00
55271;BME280;41132;47.162;9.470;2022-09-09T13:05:53;96359.13;;;17.66;100.00
55271;BME280;41132;47.162;9.470;2022-09-09T13:08:19;96352.81;;;17.61;100.00
55271;BME280;41132;47.162;9.470;2022-09-09T13:13:15;96356.47;;;17.80;100.00
55271;BME280;41132;47.162;9.470;2022-09-09T13:15:58;96347.13;;;17.90;100.00
55271;BME280;41132;47.162;9.470;2022-09-09T13:18:28;96354.84;;;18.05;100.00
55271;BME280;41132;47.162;9.470;2022-09-09T13:20:55;96355.69;;;18.12;100.00
55271;BME280;41132;47.162;9.470;2022-09-09T13:23:36;96357.28;;;18.20;100.00
55271;BME280;41132;47.162;9.470;2022-09-09T13:26:04;96352.00;;;18.07;100.00
55271;BME280;41132;47.162;9.470;2022-09-09T13:28:31;96347.31;;;18.02;100.00
55271;BME280;41132;47.162;9.470;2022-09-09T13:31:03;96348.13;;;17.96;100.00
55271;BME280;41132;47.162;9.470;2022-09-09T13:33:37;96339.75;;;18.06;100.00
55271;BME280;41132;47.162;9.470;2022-09-09T13:36:10;96344.44;;;18.10;100.00
55271;BME280;41132;47.162;9.470;2022-09-09T13:41:22;96343.81;;;18.15;100.00
55271;BME280;41132;47.162;9.470;2022-09-09T13:43:49;96340.75;;;18.11;100.00
55271;BME280;41132;47.162;9.470;2022-09-09T13:48:54;96341.56;;;18.05;100.00
55271;BME280;41132;47.162;9.470;2022-09-09T13:51:22;96338.72;;;18.07;100.00
55271;BME280;41132;47.162;9.470;2022-09-09T13:53:51;96331.56;;;18.01;100.00
55271;BME280;41132;47.162;9.470;2022-09-09T13:56:17;96329.75;;;18.01;100.00
55271;BME280;41132;47.162;9.470;2022-09-09T13:58:43;96331.00;;;17.99;100.00
55271;BME280;41132;47.162;9.470;2022-09-09T14:01:08;96322.81;;;17.93;100.00
55271;BME280;41132;47.162;9.470;2022-09-09T14:03:35;96325.69;;;17.92;100.00
55271;BME280;41132;47.162;9.470;2022-09-09T14:06:00;96321.19;;;17.99;100.00
55271;BME280;41132;47.162;9.470;2022-09-09T14:08:26;96313.19;;;18.06;100.00
55271;BME280;41132;47.162;9.470;2022-09-09T14:10:52;96309.69;;;18.12;100.00
55271;BME280;41132;47.162;9.470;2022-09-09T14:13:21;96320.13;;;18.00;100.00
55271;BME280;41132;47.162;9.470;2022-09-09T14:15:48;96310.94;;;18.09;100.00
55271;BME280;41132;47.162;9.470;2022-09-09T14:18:13;96304.38;;;18.12;100.00
55271;BME280;41132;47.162;9.470;2022-09-09T14:20:39;96311.16;;;18.08;100.00
55271;BME280;41132;47.162;9.470;2022-09-09T14:23:04;96304.63;;;17.97;100.00
55271;BME280;41132;47.162;9.470;2022-09-09T14:25:30;96313.03;;;17.94;100.00
55271;BME280;41132;47.162;9.470;2022-09-09T14:27:56;96313.41;;;18.04;100.00
55271;BME280;41132;47.162;9.470;2022-09-09T14:30:21;96310.13;;;18.09;100.00
55271;BME280;41132;47.162;9.470;2022-09-09T14:32:47;96307.28;;;18.04;100.00
55271;BME280;41132;47.162;9.470;2022-09-09T14:35:12;96308.69;;;18.06;100.00
55271;BME280;41132;47.162;9.470;2022-09-09T14:37:37;96296.81;;;18.22;100.00
55271;BME280;41132;47.162;9.470;2022-09-09T14:40:04;96300.09;;;18.18;100.00
55271;BME280;41132;47.162;9.470;2022-09-09T14:42:30;96293.75;;;18.12;100.00
55271;BME280;41132;47.162;9.470;2022-09-09T14:44:55;96304.19;;;18.07;100.00
55271;BME280;41132;47.162;9.470;2022-09-09T14:47:20;96298.09;;;18.06;100.00
55271;BME280;41132;47.162;9.470;2022-09-09T14:49:47;96293.56;;;18.07;100.00
55271;BME280;41132;47.162;9.470;2022-09-09T14:52:14;96298.69;;;18.02;100.00
55271;BME280;41132;47.162;9.470;2022-09-09T14:54:39;96304.63;;;18.10;100.00
55271;BME280;41132;47.162;9.470;2022-09-09T14:57:05;96311.53;;;18.18;100.00
55271;BME280;41132;47.162;9.470;2022-09-09T14:59:30;96306.22;;;18.11;100.00
55271;BME280;41132;47.162;9.470;2022-09-09T15:01:55;96299.28;;;18.24;100.00